createdAt,value
2017-06-21T00:00:15.142Z,71.99
2017-06-21T00:02:47.547Z,72.12
2017-06-21T00:05:19.787Z,72.40
2017-06-21T00:07:52.276Z,72.26
2017-06-21T00:10:24.603Z,72.19
2017-06-21T00:12:57.015Z,72.02
2017-06-21T00:15:29.389Z,72.06
2017-06-21T00:18:01.764Z,72.13
2017-06-21T00:20:34.202Z,72.71
2017-06-21T00:23:06.748Z,72.38
2017-06-21T00:25:39.011Z,72.60
2017-06-21T00:28:11.482Z,73.75
2017-06-21T00:30:43.832Z,73.58
2017-06-21T00:33:16.213Z,73.12
2017-06-21T00:35:48.658Z,73.43
2017-06-21T00:38:21.216Z,73.51
2017-06-21T00:40:53.503Z,73.34
2017-06-21T00:43:25.844Z,73.53
2017-06-21T00:45:58.488Z,74.27
2017-06-21T00:48:30.515Z,74.43
2017-06-21T00:51:02.853Z,74.94
2017-06-21T00:53:35.247Z,75.01
2017-06-21T00:56:07.502Z,75.21
2017-06-21T00:58:39.966Z,75.26
2017-06-21T01:01:12.583Z,75.84
2017-06-21T01:03:44.551Z,75.40
2017-06-21T01:06:16.964Z,75.22
2017-06-21T01:08:49.243Z,75.57
2017-06-21T01:11:21.503Z,75.96
2017-06-21T01:13:54.172Z,76.13
2017-06-21T01:16:26.260Z,76.47
2017-06-21T01:18:58.695Z,76.36
2017-06-21T01:21:31.131Z,76.07
2017-06-21T01:24:03.411Z,76.31
2017-06-21T01:26:35.672Z,76.53
2017-06-21T01:29:08.140Z,76.70
2017-06-21T01:31:40.579Z,76.33
2017-06-21T01:34:13.087Z,76.63
2017-06-21T01:36:45.556Z,77.13
2017-06-21T01:39:18.311Z,76.54
2017-06-21T01:41:50.524Z,77.17
2017-06-21T01:44:22.909Z,76.68
2017-06-21T01:46:55.348Z,76.81
2017-06-21T01:49:27.787Z,77.17
2017-06-21T01:52:00.021Z,77.59
2017-06-21T01:54:32.383Z,77.21
2017-06-21T01:57:04.760Z,76.85
2017-06-21T01:59:37.195Z,77.50
2017-06-21T02:02:09.588Z,76.53
2017-06-21T02:04:42.696Z,77.50
2017-06-21T02:07:14.517Z,77.75
2017-06-21T02:09:46.827Z,77.38
2017-06-21T02:12:19.475Z,78.24
2017-06-21T02:14:51.469Z,77.57
2017-06-21T02:17:23.845Z,77.98
2017-06-21T02:19:56.143Z,77.65
2017-06-21T02:22:28.484Z,78.10
2017-06-21T02:25:00.882Z,78.56
2017-06-21T02:27:33.343Z,78.58
2017-06-21T02:30:05.744Z,78.47
2017-06-21T02:32:38.106Z,78.70
2017-06-21T02:35:10.396Z,79.36
2017-06-21T02:37:43.883Z,79.06
2017-06-21T02:52:59.960Z,76.51
2017-06-21T02:55:32.249Z,78.12
2017-06-21T02:58:04.447Z,78.63
2017-06-21T03:00:36.796Z,78.06
2017-06-21T03:03:09.100Z,78.58
2017-06-21T03:05:42.930Z,78.71
2017-06-21T03:08:14.787Z,78.00
2017-06-21T03:10:47.199Z,78.89
2017-06-21T03:13:19.582Z,79.06
2017-06-21T03:15:52.101Z,80.13
2017-06-21T03:18:24.516Z,80.65
2017-06-21T03:20:56.967Z,80.53
2017-06-21T03:23:29.208Z,80.57
2017-06-21T03:26:01.543Z,81.46
2017-06-21T03:28:33.920Z,80.52
2017-06-21T03:31:06.357Z,80.71
2017-06-21T03:33:38.756Z,80.37
2017-06-21T03:36:11.107Z,80.23
2017-06-21T03:38:43.443Z,80.31
2017-06-21T03:41:15.880Z,79.75
2017-06-21T03:43:48.102Z,79.97
2017-06-21T03:46:20.568Z,79.42
2017-06-21T03:48:53.067Z,79.62
2017-06-21T03:51:25.467Z,78.89
2017-06-21T03:53:58.226Z,78.39
2017-06-21T03:56:30.311Z,78.44
2017-06-21T03:59:02.943Z,78.42
2017-06-21T04:01:35.239Z,77.30
2017-06-21T04:04:07.583Z,76.53
2017-06-21T04:06:39.956Z,76.08
2017-06-21T04:09:12.323Z,75.77
2017-06-21T04:11:44.674Z,75.66
2017-06-21T04:14:17.128Z,75.91
2017-06-21T04:16:49.588Z,75.19
2017-06-21T04:19:28.944Z,74.73
2017-06-21T04:22:02.461Z,75.04
2017-06-21T04:24:34.884Z,74.32
2017-06-21T04:27:07.216Z,72.67
2017-06-21T04:29:39.551Z,70.29
2017-06-21T04:32:12.023Z,68.63
2017-06-21T04:34:44.283Z,67.44
2017-06-21T04:37:16.642Z,66.34
2017-06-21T04:39:48.953Z,65.46
2017-06-21T04:42:21.304Z,64.57
2017-06-21T04:44:53.664Z,63.72
2017-06-21T04:47:26.922Z,63.83
2017-06-21T04:49:59.636Z,63.53
2017-06-21T04:52:32.132Z,63.26
2017-06-21T04:55:04.392Z,63.22
2017-06-21T04:57:36.861Z,64.32
2017-06-21T05:00:09.223Z,63.58
2017-06-21T05:02:42.559Z,62.38
2017-06-21T05:05:14.888Z,61.57
2017-06-21T05:07:48.212Z,59.99
2017-06-21T05:10:20.971Z,59.99
2017-06-21T05:12:53.599Z,59.43
2017-06-21T05:15:25.522Z,58.47
2017-06-21T05:17:57.903Z,56.88
2017-06-21T05:20:30.235Z,58.51
2017-06-21T05:23:03.444Z,58.26
2017-06-21T05:25:35.940Z,57.37
2017-06-21T05:28:08.339Z,53.14
2017-06-21T05:30:40.687Z,51.64
2017-06-21T05:33:13.180Z,48.79
2017-06-21T05:35:45.631Z,48.83
2017-06-21T05:38:18.956Z,51.03
2017-06-21T05:40:51.360Z,52.02
2017-06-21T05:43:23.793Z,51.71
2017-06-21T05:45:56.370Z,52.16
2017-06-21T05:48:29.556Z,53.03
2017-06-21T05:51:02.047Z,52.29
2017-06-21T05:53:34.464Z,52.28
2017-06-21T05:56:07.797Z,51.61
2017-06-21T05:58:40.183Z,52.97
2017-06-21T06:01:12.628Z,53.57
2017-06-21T06:03:45.080Z,53.91
2017-06-21T06:06:17.400Z,53.76
2017-06-21T06:08:49.779Z,52.99
2017-06-21T06:11:22.488Z,52.88
2017-06-21T06:13:54.627Z,52.08
2017-06-21T06:16:26.884Z,50.76
2017-06-21T06:18:59.355Z,50.71
2017-06-21T06:21:31.731Z,49.26
2017-06-21T06:24:04.191Z,50.17
2017-06-21T06:26:36.596Z,48.86
2017-06-21T06:29:09.064Z,44.38
2017-06-21T06:31:41.551Z,42.87
2017-06-21T06:34:14.012Z,41.68
2017-06-21T06:36:46.382Z,41.12
2017-06-21T06:39:18.828Z,40.06
2017-06-21T06:41:51.108Z,41.14
2017-06-21T06:44:23.618Z,40.83
2017-06-21T06:46:56.059Z,38.56
2017-06-21T06:49:28.506Z,36.32
2017-06-21T06:52:00.927Z,34.89
2017-06-21T06:54:34.143Z,34.02
2017-06-21T06:57:07.004Z,33.37
2017-06-21T06:59:39.152Z,33.78
2017-06-21T07:02:11.420Z,34.53
2017-06-21T07:04:43.855Z,33.64
2017-06-21T07:07:16.102Z,34.11
2017-06-21T07:09:48.392Z,34.21
2017-06-21T07:12:20.752Z,34.16
2017-06-21T07:14:54.092Z,33.37
2017-06-21T07:17:26.456Z,33.06
2017-06-21T07:19:58.904Z,33.66
2017-06-21T07:22:31.268Z,33.13
2017-06-21T07:25:03.808Z,34.33
2017-06-21T07:27:36.251Z,34.54
2017-06-21T07:30:08.668Z,34.35
2017-06-21T07:32:40.952Z,31.49
2017-06-21T07:35:13.347Z,32.93
2017-06-21T07:37:46.004Z,34.99
2017-06-21T07:40:18.159Z,35.96
2017-06-21T07:42:50.359Z,35.31
2017-06-21T07:45:22.767Z,33.30
2017-06-21T07:47:55.079Z,33.72
2017-06-21T07:50:27.589Z,31.31
2017-06-21T07:52:59.783Z,30.71
2017-06-21T07:55:33.064Z,30.30
2017-06-21T07:58:05.668Z,28.78
2017-06-21T08:00:38.109Z,28.55
2017-06-21T08:16:06.012Z,23.28
2017-06-21T08:18:38.130Z,24.12
2017-06-21T08:21:10.529Z,24.08
2017-06-21T08:23:42.952Z,23.97
2017-06-21T08:26:15.377Z,24.38
2017-06-21T08:28:47.715Z,23.38
2017-06-21T08:31:21.140Z,22.18
2017-06-21T08:33:53.783Z,22.15
2017-06-21T08:36:25.903Z,23.33
2017-06-21T08:38:58.403Z,24.02
2017-06-21T08:41:30.848Z,23.23
2017-06-21T08:44:03.097Z,25.43
2017-06-21T08:46:42.696Z,25.78
2017-06-21T08:49:15.776Z,24.95
2017-06-21T08:51:48.532Z,24.36
2017-06-21T08:54:20.873Z,23.11
2017-06-21T08:56:53.303Z,22.86
2017-06-21T08:59:25.566Z,23.08
2017-06-21T09:01:57.986Z,22.36
2017-06-21T09:04:30.372Z,21.74
2017-06-21T09:07:02.655Z,22.43
2017-06-21T09:09:35.127Z,22.37
2017-06-21T09:12:07.595Z,22.38
2017-06-21T09:14:39.796Z,21.28
2017-06-21T09:17:12.529Z,21.32
2017-06-21T09:19:44.755Z,22.32
2017-06-21T09:22:17.024Z,23.20
2017-06-21T09:24:49.336Z,21.95
2017-06-21T09:27:21.777Z,21.50
2017-06-21T09:29:54.124Z,21.45
2017-06-21T09:32:26.499Z,20.84
2017-06-21T09:34:59.180Z,20.68
2017-06-21T09:37:32.626Z,20.93
2017-06-21T09:40:04.832Z,20.60
2017-06-21T09:42:37.208Z,20.58
2017-06-21T09:45:09.591Z,18.70
2017-06-21T09:47:42.056Z,19.87
2017-06-21T09:50:14.406Z,18.61
2017-06-21T09:52:46.822Z,19.87
2017-06-21T09:55:19.053Z,21.49
2017-06-21T09:57:52.483Z,21.33
2017-06-21T10:00:24.887Z,21.49
2017-06-21T10:02:57.250Z,20.71
2017-06-21T10:05:29.588Z,21.01
2017-06-21T10:08:02.191Z,23.19
2017-06-21T10:10:34.577Z,24.46
2017-06-21T10:13:06.932Z,25.28
2017-06-21T10:15:39.374Z,25.38
2017-06-21T10:18:12.699Z,25.49
2017-06-21T10:20:45.254Z,23.74
2017-06-21T10:23:17.582Z,25.05
2017-06-21T10:25:49.859Z,25.67
2017-06-21T10:28:22.324Z,24.12
2017-06-21T10:30:54.688Z,24.49
2017-06-21T10:33:27.127Z,23.59
2017-06-21T10:35:59.592Z,24.73
2017-06-21T10:38:31.991Z,24.17
2017-06-21T10:41:04.371Z,24.06
2017-06-21T10:43:36.772Z,24.94
2017-06-21T10:46:09.137Z,24.26
2017-06-21T10:48:41.602Z,23.36
2017-06-21T10:51:14.236Z,23.60
2017-06-21T10:53:46.443Z,23.78
2017-06-21T10:56:18.986Z,23.02
2017-06-21T11:01:23.560Z,22.82
2017-06-21T11:03:56.047Z,22.32
2017-06-21T11:06:28.372Z,22.08
2017-06-21T11:09:00.704Z,21.97
2017-06-21T11:11:33.045Z,22.26
2017-06-21T11:14:05.407Z,21.74
2017-06-21T11:16:37.704Z,20.90
2017-06-21T11:19:10.175Z,22.70
2017-06-21T11:21:42.608Z,22.32
2017-06-21T11:24:14.944Z,21.72
2017-06-21T11:26:47.342Z,21.74
2017-06-21T11:29:19.816Z,21.70
2017-06-21T11:31:52.143Z,20.39
2017-06-21T11:34:24.788Z,21.31
2017-06-21T11:36:56.812Z,20.94
2017-06-21T11:39:29.256Z,20.71
2017-06-21T11:42:02.931Z,20.40
2017-06-21T11:44:35.296Z,20.04
2017-06-21T11:47:07.512Z,20.51
2017-06-21T11:49:40.084Z,20.82
2017-06-21T11:52:12.336Z,20.26
2017-06-21T11:54:44.750Z,20.73
2017-06-21T11:57:17.076Z,19.68
2017-06-21T11:59:49.413Z,20.69
2017-06-21T12:02:21.770Z,20.46
2017-06-21T12:04:54.075Z,20.18
2017-06-21T12:07:26.463Z,20.56
2017-06-21T12:09:59.080Z,20.54
2017-06-21T12:12:31.248Z,20.17
2017-06-21T12:15:03.628Z,22.50
2017-06-21T12:17:35.969Z,22.89
2017-06-21T12:20:08.375Z,21.57
2017-06-21T12:22:40.739Z,21.78
2017-06-21T12:25:13.052Z,23.46
2017-06-21T12:27:45.472Z,22.76
2017-06-21T12:30:17.895Z,23.00
2017-06-21T12:32:50.248Z,21.67
2017-06-21T12:35:23.493Z,23.27
2017-06-21T12:37:56.008Z,25.60
2017-06-21T12:40:29.419Z,24.88
2017-06-21T12:43:01.785Z,23.65
2017-06-21T12:45:34.251Z,24.01
2017-06-21T12:48:06.723Z,23.08
2017-06-21T12:50:38.835Z,24.32
2017-06-21T12:53:11.148Z,24.61
2017-06-21T12:55:43.812Z,23.43
2017-06-21T12:58:16.055Z,23.56
2017-06-21T13:00:48.543Z,25.37
2017-06-21T13:03:20.874Z,24.58
2017-06-21T13:05:53.481Z,25.32
2017-06-21T13:08:25.816Z,25.54
2017-06-21T13:10:58.249Z,26.20
2017-06-21T13:13:30.651Z,25.43
2017-06-21T13:16:02.977Z,25.13
2017-06-21T13:18:35.227Z,25.67
2017-06-21T13:21:07.679Z,24.71
2017-06-21T13:23:39.952Z,23.62
2017-06-21T13:26:13.078Z,25.33
2017-06-21T13:28:45.521Z,25.84
2017-06-21T13:31:17.956Z,25.47
2017-06-21T13:33:50.325Z,25.72
2017-06-21T13:36:22.605Z,27.75
2017-06-21T13:38:55.075Z,26.88
2017-06-21T13:41:27.234Z,27.39
2017-06-21T13:43:59.636Z,26.92
2017-06-21T13:46:32.307Z,26.70
2017-06-21T13:49:04.511Z,25.84
2017-06-21T13:51:38.580Z,27.09
2017-06-21T13:54:11.267Z,28.54
2017-06-21T13:56:43.811Z,27.69
2017-06-21T13:59:16.123Z,28.67
2017-06-21T14:01:48.504Z,29.43
2017-06-21T14:04:20.887Z,28.50
2017-06-21T14:06:53.316Z,29.79
2017-06-21T14:09:25.690Z,29.22
2017-06-21T14:11:58.064Z,30.64
2017-06-21T14:14:30.339Z,30.52
2017-06-21T14:17:02.684Z,31.91
2017-06-21T14:19:35.228Z,32.49
2017-06-21T14:22:07.616Z,32.48
2017-06-21T14:24:39.953Z,31.88
2017-06-21T14:27:12.451Z,30.34
2017-06-21T14:29:44.744Z,30.25
2017-06-21T14:32:17.075Z,30.56
2017-06-21T14:34:49.420Z,30.71
2017-06-21T14:37:21.819Z,30.40
2017-06-21T14:39:54.988Z,30.55
2017-06-21T14:42:27.332Z,30.78
2017-06-21T14:44:59.580Z,29.69
2017-06-21T14:47:31.903Z,30.26
2017-06-21T14:50:04.176Z,30.45
2017-06-21T14:52:37.462Z,31.28
2017-06-21T14:55:09.833Z,32.35
2017-06-21T14:57:42.191Z,32.02
2017-06-21T15:00:14.543Z,31.65
2017-06-21T15:02:46.752Z,31.99
2017-06-21T15:05:19.007Z,31.95
2017-06-21T15:07:51.430Z,31.33
2017-06-21T15:10:23.724Z,31.28
2017-06-21T15:12:56.111Z,31.54
2017-06-21T15:15:28.555Z,32.33
2017-06-21T15:18:00.953Z,33.07
2017-06-21T15:20:33.307Z,33.77
2017-06-21T15:23:05.557Z,33.60
2017-06-21T15:25:38.739Z,33.18
2017-06-21T15:28:11.233Z,32.57
2017-06-21T15:30:43.612Z,32.15
2017-06-21T15:33:16.399Z,31.70
2017-06-21T15:35:48.363Z,31.74
2017-06-21T15:38:20.775Z,31.78
2017-06-21T15:40:53.207Z,31.95
2017-06-21T15:43:26.587Z,31.95
2017-06-21T15:45:58.940Z,31.76
2017-06-21T15:48:31.270Z,32.01
2017-06-21T15:51:03.546Z,32.11
2017-06-21T15:53:35.917Z,32.13
2017-06-21T15:56:08.451Z,32.19
2017-06-21T15:58:40.943Z,32.51
2017-06-21T16:01:13.324Z,32.11
2017-06-21T16:03:45.635Z,32.66
2017-06-21T16:06:17.979Z,34.00
2017-06-21T16:08:51.227Z,33.75
2017-06-21T16:11:23.860Z,34.19
2017-06-21T16:13:56.147Z,35.02
2017-06-21T16:16:28.508Z,35.03
2017-06-21T16:19:00.904Z,33.83
2017-06-21T16:21:33.356Z,34.28
2017-06-21T16:24:05.683Z,34.00
2017-06-21T16:26:38.083Z,33.66
2017-06-21T16:29:10.367Z,34.28
2017-06-21T16:31:42.667Z,35.29
2017-06-21T16:34:15.103Z,34.61
2017-06-21T16:36:47.335Z,34.04
2017-06-21T16:39:19.764Z,34.67
2017-06-21T16:41:52.136Z,35.10
2017-06-21T16:44:24.620Z,35.82
2017-06-21T16:46:57.051Z,35.44
2017-06-21T16:49:29.569Z,35.61
2017-06-21T16:52:02.926Z,35.26
2017-06-21T16:54:35.331Z,35.65
2017-06-21T16:57:07.700Z,36.16
2017-06-21T16:59:40.012Z,36.32
2017-06-21T17:02:12.427Z,36.49
2017-06-21T17:04:44.888Z,36.39
2017-06-21T17:07:17.193Z,36.05
2017-06-21T17:09:49.744Z,36.86
2017-06-21T17:12:22.868Z,36.75
2017-06-21T17:14:55.510Z,36.47
2017-06-21T17:17:28.204Z,36.94
2017-06-21T17:20:00.353Z,37.39
2017-06-21T17:22:32.847Z,36.76
2017-06-21T17:25:05.264Z,36.97
2017-06-21T17:27:37.967Z,36.29
2017-06-21T17:30:10.112Z,36.80
2017-06-21T17:32:42.573Z,37.85
2017-06-21T17:35:14.887Z,37.79
2017-06-21T17:37:47.204Z,37.05
2017-06-21T17:40:19.596Z,37.18
2017-06-21T17:42:52.486Z,37.32
2017-06-21T17:45:24.376Z,38.02
2017-06-21T17:47:56.716Z,37.69
2017-06-21T17:50:29.293Z,38.14
2017-06-21T17:53:01.454Z,38.00
2017-06-21T17:55:33.758Z,38.27
2017-06-21T17:58:06.211Z,38.55
2017-06-21T18:00:38.683Z,38.62
2017-06-21T18:03:11.112Z,38.64
2017-06-21T18:05:43.708Z,38.82
2017-06-21T18:08:15.812Z,39.14
2017-06-21T18:10:48.229Z,39.28
2017-06-21T18:13:20.439Z,39.72
2017-06-21T18:15:52.848Z,39.29
2017-06-21T18:18:25.208Z,39.68
2017-06-21T18:20:57.535Z,39.96
2017-06-21T18:23:29.987Z,39.52
2017-06-21T18:26:02.434Z,39.72
2017-06-21T18:28:34.735Z,39.96
2017-06-21T18:31:07.220Z,40.46
2017-06-21T18:33:39.680Z,41.16
2017-06-21T18:36:12.167Z,41.56
2017-06-21T18:38:44.477Z,41.66
2017-06-21T18:41:16.703Z,41.93
2017-06-21T18:43:48.995Z,41.76
2017-06-21T18:46:21.335Z,42.01
2017-06-21T18:48:53.768Z,42.29
2017-06-21T18:51:27.072Z,42.39
2017-06-21T18:53:59.405Z,42.88
2017-06-21T18:56:31.831Z,42.91
2017-06-21T18:59:04.272Z,43.69
2017-06-21T19:01:36.651Z,43.53
2017-06-21T19:04:09.032Z,43.94
2017-06-21T19:06:41.443Z,44.17
2017-06-21T19:09:14.075Z,44.54
2017-06-21T19:11:46.266Z,44.64
2017-06-21T19:14:18.531Z,44.72
2017-06-21T19:16:50.956Z,44.90
2017-06-21T19:19:23.259Z,45.14
2017-06-21T19:21:56.612Z,45.23
2017-06-21T19:24:29.807Z,45.73
2017-06-21T19:27:02.470Z,46.06
2017-06-21T19:29:34.903Z,45.80
2017-06-21T19:32:07.417Z,46.01
2017-06-21T19:34:39.996Z,46.33
2017-06-21T19:37:12.177Z,46.45
2017-06-21T19:39:44.451Z,46.94
2017-06-21T19:42:16.899Z,47.24
2017-06-21T19:44:49.155Z,47.17
2017-06-21T19:47:21.920Z,47.32
2017-06-21T19:49:53.912Z,47.40
2017-06-21T19:52:27.186Z,47.74
2017-06-21T19:54:59.635Z,48.55
2017-06-21T19:57:37.329Z,49.00
2017-06-21T20:00:09.443Z,49.36
2017-06-21T20:02:41.691Z,49.75
2017-06-21T20:05:14.140Z,50.32
2017-06-21T20:07:47.499Z,50.63
2017-06-21T20:10:19.918Z,50.92
2017-06-21T20:12:52.205Z,51.25
2017-06-21T20:15:24.473Z,52.08
2017-06-21T20:17:56.916Z,51.66
2017-06-21T20:20:29.344Z,52.09
2017-06-21T20:23:01.721Z,52.20
2017-06-21T20:25:34.172Z,52.48
2017-06-21T20:28:06.620Z,52.50
2017-06-21T20:30:39.317Z,53.02
2017-06-21T20:33:13.279Z,52.86
2017-06-21T20:35:45.736Z,52.93
2017-06-21T20:38:18.043Z,52.79
2017-06-21T20:40:50.388Z,53.03
2017-06-21T20:43:22.885Z,53.44
2017-06-21T20:45:55.237Z,53.23
2017-06-21T20:48:27.528Z,52.71
2017-06-21T20:51:00.266Z,52.52
2017-06-21T20:53:33.211Z,52.95
2017-06-21T20:56:05.712Z,53.00
2017-06-21T20:58:38.159Z,53.29
2017-06-21T21:01:10.596Z,53.53
2017-06-21T21:03:42.979Z,52.52
2017-06-21T21:06:15.239Z,52.23
2017-06-21T21:08:47.623Z,52.15
2017-06-21T21:11:20.051Z,51.96
2017-06-21T21:13:52.443Z,53.51
2017-06-21T21:16:24.723Z,52.55
2017-06-21T21:18:57.063Z,52.64
2017-06-21T21:21:29.371Z,52.74
2017-06-21T21:24:01.768Z,54.41
2017-06-21T21:26:34.056Z,54.29
2017-06-21T21:29:06.399Z,54.39
2017-06-21T21:31:38.748Z,54.42
2017-06-21T21:34:11.165Z,56.78
2017-06-21T21:36:43.544Z,55.83
2017-06-21T21:39:16.383Z,55.39
2017-06-21T21:41:48.388Z,54.17
2017-06-21T21:44:21.143Z,55.78
2017-06-21T21:46:53.071Z,55.15
2017-06-21T21:49:25.460Z,55.44
2017-06-21T21:51:57.821Z,55.10
2017-06-21T21:54:30.175Z,54.90
2017-06-21T21:57:02.527Z,56.17
2017-06-21T21:59:34.955Z,55.63
2017-06-21T22:02:07.235Z,54.50
2017-06-21T22:04:39.680Z,54.52
2017-06-21T22:07:11.943Z,54.68
2017-06-21T22:09:44.352Z,56.54
2017-06-21T22:12:16.751Z,57.01
2017-06-21T22:14:49.148Z,58.43
2017-06-21T22:17:21.489Z,58.20
2017-06-21T22:19:54.117Z,57.55
2017-06-21T22:22:27.195Z,58.36
2017-06-21T22:24:59.752Z,60.80
2017-06-21T22:27:32.090Z,57.64
2017-06-21T22:30:04.484Z,59.20
2017-06-21T22:32:36.871Z,56.63
2017-06-21T22:35:09.343Z,57.85
2017-06-21T22:37:41.624Z,56.89
2017-06-21T22:40:13.932Z,56.82
2017-06-21T22:42:46.367Z,57.07
2017-06-21T22:45:18.755Z,57.10
2017-06-21T22:47:50.997Z,58.35
2017-06-21T22:50:23.376Z,57.53
2017-06-21T22:52:55.689Z,58.24
2017-06-21T22:55:27.951Z,57.49
2017-06-21T22:58:00.383Z,57.48
2017-06-21T23:00:32.784Z,57.50
2017-06-21T23:03:05.063Z,58.36
2017-06-21T23:05:37.441Z,58.79
2017-06-21T23:08:09.974Z,58.98
2017-06-21T23:10:42.174Z,58.24
2017-06-21T23:13:14.533Z,58.27
2017-06-21T23:15:47.016Z,58.38
2017-06-21T23:18:19.375Z,58.42
2017-06-21T23:20:51.680Z,58.07
2017-06-21T23:23:24.024Z,58.44
2017-06-21T23:25:56.358Z,58.97
2017-06-21T23:28:28.649Z,58.74
2017-06-21T23:31:01.423Z,59.97
2017-06-21T23:33:33.244Z,60.24
2017-06-21T23:36:05.759Z,59.66
2017-06-21T23:38:38.019Z,60.17
2017-06-21T23:41:10.407Z,60.71
2017-06-21T23:43:42.794Z,60.32
2017-06-21T23:46:15.299Z,60.43
2017-06-21T23:48:47.852Z,60.36
2017-06-21T23:51:20.268Z,60.44
2017-06-21T23:53:52.496Z,60.31
2017-06-21T23:56:24.897Z,60.57
2017-06-21T23:58:58.139Z,60.12
